METAR Data
IDs: Format: Raw Decoded Include TAF

Data at: 0947 UTC 26 Jan 2020

KATW 260935Z AUTO 27006KT 7SM OVC006 00/00 A2982 RMK AO2
KATW 260915Z AUTO 27006KT 5SM BR BKN006 OVC015 00/00 A2982 RMK AO2
KATW 260855Z AUTO 27008KT 4SM -SN OVC006 00/00 A2982 RMK AO2
KATW 260835Z AUTO 28008KT 5SM -SN OVC006 00/00 A2982 RMK AO2
KATW 260815Z AUTO 28008KT 10SM OVC006 00/00 A2982 RMK AO2
KATW 260755Z AUTO 28007KT 7SM BKN006 OVC017 00/00 A2982 RMK AO2
KATW 260735Z AUTO 28006KT 10SM BKN008 BKN017 OVC047 00/00 A2982 RMK AO2
KATW 260715Z AUTO 28006KT 10SM BKN008 BKN019 OVC060 00/00 A2981 RMK AO2
KATW 260655Z AUTO 28008KT 10SM SCT007 SCT015 OVC050 00/00 A2981 RMK AO2
KATW 260635Z AUTO 29008KT 10SM SCT007 BKN046 OVC050 00/00 A2981 RMK AO2
KATW 260615Z AUTO 30009KT 7SM -SN SCT009 BKN027 OVC042 00/00 A2981 RMK AO2
KATW 260555Z AUTO 30009KT 7SM -SN BKN007 BKN017 OVC050 00/00 A2982 RMK AO2
KATW 260535Z AUTO 29009KT 10SM BKN007 BKN011 OVC050 00/00 A2981 RMK AO2
KATW 260515Z AUTO 29008KT 10SM SCT007 SCT011 OVC055 00/00 A2981 RMK AO2
KATW 260455Z AUTO 28007KT 10SM -SN SCT012 SCT037 BKN090 00/00 A2981 RMK AO2
KATW 260445Z 30007KT 10SM SCT035 OVC090 00/00 A2981 RMK LAST
KATW 260345Z 30007KT 10SM SCT020 OVC040 01/01 A2981
KATW 260245Z 30006KT 10SM SCT015 BKN020 01/01 A2980
KATW 260145Z 30006KT 10SM SCT007 BKN015 01/01 A2980
KATW 260045Z 30006KT 10SM OVC025 01/01 A2980
KATW 252345Z 30005KT 10SM BKN015 OVC020 01/01 A2980
KATW 252245Z 30005KT 10SM SCT006 OVC020 01/01 A2978
KATW 252045Z 32006KT 10SM OVC006 01/00 A2976
KATW 251945Z 33007KT 10SM OVC004 01/00 A2975
KATW 251845Z 33006KT 10SM OVC004 01/00 A2976
KATW 251745Z 33006KT 10SM OVC005 01/00 A2977
KATW 251645Z 35005KT 10SM OVC006 00/00 A2977
KATW 251545Z 33005KT 10SM BKN006 OVC012 00/00 A2976
KATW 251445Z 33005KT 7SM BKN008 OVC012 M01/M01 A2975
KATW 251345Z 33004KT 3SM -SN BKN005 OVC009 M01/M01 A2975
KATW 251245Z 33005KT 2SM -SN OVC004 M01/M01 A2975
KATW 251145Z 34004KT 2SM -SN OVC004 M01/M01 A2974
KATW 251120Z 35005KT 2SM -SN OVC003 M01/M01 A2973 RMK FIRST
KATW 251115Z AUTO 35005KT 1 3/4SM -SN OVC005 00/00 A2973 RMK AO2 P0001
KATW 251055Z AUTO 35005KT 2SM -SN OVC005 00/00 A2973 RMK AO2 P0001
KATW 251035Z AUTO 35006KT 3SM -SN OVC005 00/00 A2973 RMK AO2 P0001
KATW 251015Z AUTO 35005KT 3SM -SN OVC005 00/00 A2973 RMK AO2
KATW 250955Z AUTO 35006KT 4SM -SN OVC003 00/00 A2973 RMK AO2
KATW 250935Z AUTO 36006KT 3SM -SN OVC003 00/00 A2973 RMK AO2
KATW 250915Z AUTO 36007KT 2 1/2SM -SN OVC003 00/00 A2973 RMK AO2
KATW 250855Z AUTO 36007KT 3SM -SN OVC003 00/00 A2974 RMK AO2
KATW 250835Z AUTO 36007KT 3SM -SN OVC003 00/00 A2974 RMK AO2
KATW 250815Z AUTO 36007KT 2 1/2SM -SN OVC003 00/00 A2975 RMK AO2
KATW 250755Z AUTO 36006KT 2 1/2SM -SN OVC003 00/00 A2975 RMK AO2 P0001
KATW 250735Z AUTO 36007KT 2SM -SN OVC003 00/00 A2975 RMK AO2
KATW 250715Z AUTO 36007KT 2SM -SN OVC003 00/00 A2975 RMK AO2
KATW 250655Z AUTO 36008KT 3SM -SN OVC003 00/00 A2975 RMK AO2
KATW 250635Z AUTO 36008KT 5SM -SN OVC003 00/00 A2975 RMK AO2
KATW 250615Z AUTO 01007KT 4SM -SN OVC003 00/00 A2975 RMK AO2
KATW 250555Z AUTO 36006KT 4SM -SN OVC003 00/00 A2976 RMK AO2
KATW 250535Z AUTO 36008KT 4SM -SN OVC003 00/00 A2977 RMK AO2
KATW 250515Z AUTO 36008KT 3SM -RA OVC003 00/00 A2977 RMK AO2
KATW 250455Z AUTO 01007KT 2 1/2SM RA OVC003 00/00 A2978 RMK AO2
KATW 250445Z 01007KT 2SM -SN OVC003 00/00 A2978 RMK LAST
KATW 250345Z 01008KT 2SM -SN OVC003 00/00 A2979
KATW 250245Z 02008KT 1 1/2SM -SN OVC003 00/00 A2980
KATW 250145Z 01008KT 2SM -SN OVC003 00/00 A2981
KATW 250045Z 01008KT 2SM -DZ BR OVC003 00/00 A2982
KATW 242345Z 03008KT 2SM -DZ BR OVC003 01/01 A2983
KATW 242245Z 02008KT 1 1/2SM -DZ BR OVC003 01/01 A2983